sensor_id;sensor_type;location;lat;lon;timestamp;temperature;humidity
19552;DHT22;9921;47.186;9.778;2022-11-15T00:00:45;6.50;99.90
19552;DHT22;9921;47.186;9.778;2022-11-15T00:03:13;6.40;99.90
19552;DHT22;9921;47.186;9.778;2022-11-15T00:05:41;6.40;99.90
19552;DHT22;9921;47.186;9.778;2022-11-15T00:08:08;6.40;99.90
19552;DHT22;9921;47.186;9.778;2022-11-15T00:10:35;6.30;99.90
19552;DHT22;9921;47.186;9.778;2022-11-15T00:13:05;6.20;99.90
19552;DHT22;9921;47.186;9.778;2022-11-15T00:15:34;6.20;99.90
19552;DHT22;9921;47.186;9.778;2022-11-15T00:18:01;6.00;99.90
19552;DHT22;9921;47.186;9.778;2022-11-15T00:20:28;5.90;99.90
19552;DHT22;9921;47.186;9.778;2022-11-15T00:22:55;5.90;99.90
19552;DHT22;9921;47.186;9.778;2022-11-15T00:25:22;5.90;99.90
19552;DHT22;9921;47.186;9.778;2022-11-15T00:27:48;6.00;99.90
19552;DHT22;9921;47.186;9.778;2022-11-15T00:30:17;5.90;99.90
19552;DHT22;9921;47.186;9.778;2022-11-15T00:32:45;5.70;99.90
19552;DHT22;9921;47.186;9.778;2022-11-15T00:35:12;5.60;99.90
19552;DHT22;9921;47.186;9.778;2022-11-15T00:37:39;5.70;99.90
19552;DHT22;9921;47.186;9.778;2022-11-15T00:40:07;5.70;99.90
19552;DHT22;9921;47.186;9.778;2022-11-15T00:42:34;5.80;99.90
19552;DHT22;9921;47.186;9.778;2022-11-15T00:45:01;5.80;99.90
19552;DHT22;9921;47.186;9.778;2022-11-15T00:47:27;5.70;99.90
19552;DHT22;9921;47.186;9.778;2022-11-15T00:49:56;5.70;99.90
19552;DHT22;9921;47.186;9.778;2022-11-15T00:52:22;5.50;99.90
19552;DHT22;9921;47.186;9.778;2022-11-15T00:54:49;5.60;99.90
19552;DHT22;9921;47.186;9.778;2022-11-15T00:57:16;5.60;99.90
19552;DHT22;9921;47.186;9.778;2022-11-15T00:59:43;5.60;99.90
19552;DHT22;9921;47.186;9.778;2022-11-15T01:02:10;5.60;99.90
19552;DHT22;9921;47.186;9.778;2022-11-15T01:04:37;5.60;99.90
19552;DHT22;9921;47.186;9.778;2022-11-15T01:07:05;5.60;99.90
19552;DHT22;9921;47.186;9.778;2022-11-15T01:09:32;5.60;99.90
19552;DHT22;9921;47.186;9.778;2022-11-15T01:11:58;5.40;99.90
19552;DHT22;9921;47.186;9.778;2022-11-15T01:14:25;5.50;99.90
19552;DHT22;9921;47.186;9.778;2022-11-15T01:16:52;5.30;99.90
19552;DHT22;9921;47.186;9.778;2022-11-15T01:19:19;5.20;99.90
19552;DHT22;9921;47.186;9.778;2022-11-15T01:21:48;5.20;99.90
19552;DHT22;9921;47.186;9.778;2022-11-15T01:24:17;5.20;99.90
19552;DHT22;9921;47.186;9.778;2022-11-15T01:26:43;5.30;99.90
19552;DHT22;9921;47.186;9.778;2022-11-15T01:29:10;5.30;99.90
19552;DHT22;9921;47.186;9.778;2022-11-15T01:31:37;5.30;99.90
19552;DHT22;9921;47.186;9.778;2022-11-15T01:34:04;5.30;99.90
19552;DHT22;9921;47.186;9.778;2022-11-15T01:36:31;5.30;99.90
19552;DHT22;9921;47.186;9.778;2022-11-15T01:38:58;5.30;99.90
19552;DHT22;9921;47.186;9.778;2022-11-15T01:41:28;5.30;99.90
19552;DHT22;9921;47.186;9.778;2022-11-15T01:43:57;5.40;99.90
19552;DHT22;9921;47.186;9.778;2022-11-15T01:46:45;5.50;99.90
19552;DHT22;9921;47.186;9.778;2022-11-15T01:49:16;5.10;99.90
19552;DHT22;9921;47.186;9.778;2022-11-15T01:51:44;5.20;99.90
19552;DHT22;9921;47.186;9.778;2022-11-15T01:54:15;5.20;99.90
19552;DHT22;9921;47.186;9.778;2022-11-15T01:56:46;5.20;99.90
19552;DHT22;9921;47.186;9.778;2022-11-15T01:59:15;5.20;99.90
19552;DHT22;9921;47.186;9.778;2022-11-15T02:01:42;5.10;99.90
19552;DHT22;9921;47.186;9.778;2022-11-15T02:04:13;5.20;99.90
19552;DHT22;9921;47.186;9.778;2022-11-15T02:06:42;5.10;99.90
19552;DHT22;9921;47.186;9.778;2022-11-15T02:09:10;5.10;99.90
19552;DHT22;9921;47.186;9.778;2022-11-15T02:11:37;5.20;99.90
19552;DHT22;9921;47.186;9.778;2022-11-15T02:14:06;5.10;99.90
19552;DHT22;9921;47.186;9.778;2022-11-15T02:16:40;5.10;99.90
19552;DHT22;9921;47.186;9.778;2022-11-15T02:19:21;5.10;99.90
19552;DHT22;9921;47.186;9.778;2022-11-15T02:22:02;5.00;99.90
19552;DHT22;9921;47.186;9.778;2022-11-15T02:24:56;5.00;99.90
19552;DHT22;9921;47.186;9.778;2022-11-15T02:27:42;5.00;99.90
19552;DHT22;9921;47.186;9.778;2022-11-15T02:30:21;5.00;99.90
19552;DHT22;9921;47.186;9.778;2022-11-15T02:32:52;5.10;99.90
19552;DHT22;9921;47.186;9.778;2022-11-15T02:35:28;5.10;99.90
19552;DHT22;9921;47.186;9.778;2022-11-15T02:37:58;5.10;99.90
19552;DHT22;9921;47.186;9.778;2022-11-15T02:40:33;5.10;99.90
19552;DHT22;9921;47.186;9.778;2022-11-15T02:43:06;5.10;99.90
19552;DHT22;9921;47.186;9.778;2022-11-15T02:45:56;5.10;99.90
19552;DHT22;9921;47.186;9.778;2022-11-15T02:48:26;5.00;99.90
19552;DHT22;9921;47.186;9.778;2022-11-15T02:50:53;5.10;99.90
19552;DHT22;9921;47.186;9.778;2022-11-15T02:53:24;5.20;99.90
19552;DHT22;9921;47.186;9.778;2022-11-15T02:55:51;5.20;99.90
19552;DHT22;9921;47.186;9.778;2022-11-15T02:58:41;5.20;99.90
19552;DHT22;9921;47.186;9.778;2022-11-15T03:01:23;5.10;99.90
19552;DHT22;9921;47.186;9.778;2022-11-15T03:04:02;5.10;99.90
19552;DHT22;9921;47.186;9.778;2022-11-15T03:06:37;5.00;99.90
19552;DHT22;9921;47.186;9.778;2022-11-15T03:09:11;5.10;99.90
19552;DHT22;9921;47.186;9.778;2022-11-15T03:11:46;5.10;99.90
19552;DHT22;9921;47.186;9.778;2022-11-15T03:14:20;5.00;99.90
19552;DHT22;9921;47.186;9.778;2022-11-15T03:16:54;4.90;99.90
19552;DHT22;9921;47.186;9.778;2022-11-15T03:19:30;4.80;99.90
19552;DHT22;9921;47.186;9.778;2022-11-15T03:22:01;4.60;99.90
19552;DHT22;9921;47.186;9.778;2022-11-15T03:24:30;4.40;99.90
19552;DHT22;9921;47.186;9.778;2022-11-15T03:27:00;4.40;99.90
19552;DHT22;9921;47.186;9.778;2022-11-15T03:29:32;4.50;99.90
19552;DHT22;9921;47.186;9.778;2022-11-15T03:32:05;4.50;99.90
19552;DHT22;9921;47.186;9.778;2022-11-15T03:34:36;4.40;99.90
19552;DHT22;9921;47.186;9.778;2022-11-15T03:37:05;4.40;99.90
19552;DHT22;9921;47.186;9.778;2022-11-15T03:39:32;4.40;99.90
19552;DHT22;9921;47.186;9.778;2022-11-15T03:42:07;4.40;99.90
19552;DHT22;9921;47.186;9.778;2022-11-15T03:44:45;4.40;99.90
19552;DHT22;9921;47.186;9.778;2022-11-15T03:47:17;4.40;99.90
19552;DHT22;9921;47.186;9.778;2022-11-15T03:49:50;4.40;99.90
19552;DHT22;9921;47.186;9.778;2022-11-15T03:52:21;4.50;99.90
19552;DHT22;9921;47.186;9.778;2022-11-15T03:54:50;4.50;99.90
19552;DHT22;9921;47.186;9.778;2022-11-15T03:57:17;4.60;99.90
19552;DHT22;9921;47.186;9.778;2022-11-15T03:59:44;4.50;99.90
19552;DHT22;9921;47.186;9.778;2022-11-15T04:02:11;4.50;99.90
19552;DHT22;9921;47.186;9.778;2022-11-15T04:04:39;4.40;99.90
19552;DHT22;9921;47.186;9.778;2022-11-15T04:07:06;4.00;99.90
19552;DHT22;9921;47.186;9.778;2022-11-15T04:09:33;4.00;99.90
19552;DHT22;9921;47.186;9.778;2022-11-15T04:12:20;4.10;99.90
19552;DHT22;9921;47.186;9.778;2022-11-15T04:14:56;4.10;99.90
19552;DHT22;9921;47.186;9.778;2022-11-15T04:17:34;4.20;99.90
19552;DHT22;9921;47.186;9.778;2022-11-15T04:20:03;4.30;99.90
19552;DHT22;9921;47.186;9.778;2022-11-15T04:22:47;4.20;99.90
19552;DHT22;9921;47.186;9.778;2022-11-15T04:25:31;4.30;99.90
19552;DHT22;9921;47.186;9.778;2022-11-15T04:27:58;4.30;99.90
19552;DHT22;9921;47.186;9.778;2022-11-15T04:30:25;4.30;99.90
19552;DHT22;9921;47.186;9.778;2022-11-15T04:32:51;4.30;99.90
19552;DHT22;9921;47.186;9.778;2022-11-15T04:35:20;4.40;99.90
19552;DHT22;9921;47.186;9.778;2022-11-15T04:37:46;4.40;99.90
19552;DHT22;9921;47.186;9.778;2022-11-15T04:40:12;4.30;99.90
19552;DHT22;9921;47.186;9.778;2022-11-15T04:42:40;4.30;99.90
19552;DHT22;9921;47.186;9.778;2022-11-15T04:45:08;4.30;99.90
19552;DHT22;9921;47.186;9.778;2022-11-15T04:47:35;3.80;99.90
19552;DHT22;9921;47.186;9.778;2022-11-15T04:50:03;3.70;99.90
19552;DHT22;9921;47.186;9.778;2022-11-15T04:52:31;3.80;99.90
19552;DHT22;9921;47.186;9.778;2022-11-15T04:54:58;3.80;99.90
19552;DHT22;9921;47.186;9.778;2022-11-15T04:57:25;4.00;99.90
19552;DHT22;9921;47.186;9.778;2022-11-15T04:59:52;4.00;99.90
19552;DHT22;9921;47.186;9.778;2022-11-15T05:02:18;4.00;99.90
19552;DHT22;9921;47.186;9.778;2022-11-15T05:04:45;4.00;99.90
19552;DHT22;9921;47.186;9.778;2022-11-15T05:07:11;3.90;99.90
19552;DHT22;9921;47.186;9.778;2022-11-15T05:09:39;4.00;99.90
19552;DHT22;9921;47.186;9.778;2022-11-15T05:12:06;4.20;99.90
19552;DHT22;9921;47.186;9.778;2022-11-15T05:14:33;4.30;99.90
19552;DHT22;9921;47.186;9.778;2022-11-15T05:17:00;4.30;99.90
19552;DHT22;9921;47.186;9.778;2022-11-15T05:19:27;4.10;99.90
19552;DHT22;9921;47.186;9.778;2022-11-15T05:21:53;4.10;99.90
19552;DHT22;9921;47.186;9.778;2022-11-15T05:24:20;4.10;99.90
19552;DHT22;9921;47.186;9.778;2022-11-15T05:26:48;4.20;99.90
19552;DHT22;9921;47.186;9.778;2022-11-15T05:29:15;4.30;99.90
19552;DHT22;9921;47.186;9.778;2022-11-15T05:31:42;4.20;99.90
19552;DHT22;9921;47.186;9.778;2022-11-15T05:34:09;4.20;99.90
19552;DHT22;9921;47.186;9.778;2022-11-15T05:36:38;4.10;99.90
19552;DHT22;9921;47.186;9.778;2022-11-15T05:39:06;4.10;99.90
19552;DHT22;9921;47.186;9.778;2022-11-15T05:41:35;4.10;99.90
19552;DHT22;9921;47.186;9.778;2022-11-15T05:44:06;4.20;99.90
19552;DHT22;9921;47.186;9.778;2022-11-15T05:46:34;4.30;99.90
19552;DHT22;9921;47.186;9.778;2022-11-15T05:49:02;4.30;99.90
19552;DHT22;9921;47.186;9.778;2022-11-15T05:51:31;4.30;99.90
19552;DHT22;9921;47.186;9.778;2022-11-15T05:53:58;4.30;99.90
19552;DHT22;9921;47.186;9.778;2022-11-15T05:56:26;4.20;99.90
19552;DHT22;9921;47.186;9.778;2022-11-15T05:58:55;4.10;99.90
19552;DHT22;9921;47.186;9.778;2022-11-15T06:01:25;4.30;99.90
19552;DHT22;9921;47.186;9.778;2022-11-15T06:03:52;4.20;99.90
19552;DHT22;9921;47.186;9.778;2022-11-15T06:06:19;4.20;99.90
19552;DHT22;9921;47.186;9.778;2022-11-15T06:08:46;4.10;99.90
19552;DHT22;9921;47.186;9.778;2022-11-15T06:11:14;4.00;99.90
19552;DHT22;9921;47.186;9.778;2022-11-15T06:13:40;4.00;99.90
19552;DHT22;9921;47.186;9.778;2022-11-15T06:16:07;4.00;99.90
19552;DHT22;9921;47.186;9.778;2022-11-15T06:18:36;4.00;99.90
19552;DHT22;9921;47.186;9.778;2022-11-15T06:21:03;4.00;99.90
19552;DHT22;9921;47.186;9.778;2022-11-15T06:23:32;4.00;99.90
19552;DHT22;9921;47.186;9.778;2022-11-15T06:26:00;4.00;99.90
19552;DHT22;9921;47.186;9.778;2022-11-15T06:28:28;4.00;99.90
19552;DHT22;9921;47.186;9.778;2022-11-15T06:30:56;4.10;99.90
19552;DHT22;9921;47.186;9.778;2022-11-15T06:33:23;4.00;99.90
19552;DHT22;9921;47.186;9.778;2022-11-15T06:35:51;4.00;99.90
19552;DHT22;9921;47.186;9.778;2022-11-15T06:38:18;4.00;99.90
19552;DHT22;9921;47.186;9.778;2022-11-15T06:40:45;3.90;99.90
19552;DHT22;9921;47.186;9.778;2022-11-15T06:43:12;3.90;99.90
19552;DHT22;9921;47.186;9.778;2022-11-15T06:45:40;3.90;99.90
19552;DHT22;9921;47.186;9.778;2022-11-15T06:48:06;3.90;99.90
19552;DHT22;9921;47.186;9.778;2022-11-15T06:50:33;3.90;99.90
19552;DHT22;9921;47.186;9.778;2022-11-15T06:53:03;3.80;99.90
19552;DHT22;9921;47.186;9.778;2022-11-15T06:55:30;3.80;99.90
19552;DHT22;9921;47.186;9.778;2022-11-15T06:57:57;3.60;99.90
19552;DHT22;9921;47.186;9.778;2022-11-15T07:00:23;3.60;99.90
19552;DHT22;9921;47.186;9.778;2022-11-15T07:02:50;3.70;99.90
19552;DHT22;9921;47.186;9.778;2022-11-15T07:05:17;3.70;99.90
19552;DHT22;9921;47.186;9.778;2022-11-15T07:07:51;3.80;99.90
19552;DHT22;9921;47.186;9.778;2022-11-15T07:10:20;3.80;99.90
19552;DHT22;9921;47.186;9.778;2022-11-15T07:12:48;3.80;99.90
19552;DHT22;9921;47.186;9.778;2022-11-15T07:15:15;3.90;99.90
19552;DHT22;9921;47.186;9.778;2022-11-15T07:17:42;3.90;99.90
19552;DHT22;9921;47.186;9.778;2022-11-15T07:20:09;3.80;99.90
19552;DHT22;9921;47.186;9.778;2022-11-15T07:22:36;3.80;99.90
19552;DHT22;9921;47.186;9.778;2022-11-15T07:25:03;3.70;99.90
19552;DHT22;9921;47.186;9.778;2022-11-15T07:27:32;3.60;99.90
19552;DHT22;9921;47.186;9.778;2022-11-15T07:29:59;3.70;99.90
19552;DHT22;9921;47.186;9.778;2022-11-15T07:32:26;3.70;99.90
19552;DHT22;9921;47.186;9.778;2022-11-15T07:34:53;3.90;99.90
19552;DHT22;9921;47.186;9.778;2022-11-15T07:37:19;4.00;99.90
19552;DHT22;9921;47.186;9.778;2022-11-15T07:39:46;4.10;99.90
19552;DHT22;9921;47.186;9.778;2022-11-15T07:42:13;4.20;99.90
19552;DHT22;9921;47.186;9.778;2022-11-15T07:44:59;4.30;99.90
19552;DHT22;9921;47.186;9.778;2022-11-15T07:47:28;4.30;99.90
19552;DHT22;9921;47.186;9.778;2022-11-15T07:49:55;4.20;99.90
19552;DHT22;9921;47.186;9.778;2022-11-15T07:52:21;4.30;99.90
19552;DHT22;9921;47.186;9.778;2022-11-15T07:54:48;4.40;99.90
19552;DHT22;9921;47.186;9.778;2022-11-15T07:57:15;4.20;99.90
19552;DHT22;9921;47.186;9.778;2022-11-15T07:59:42;4.30;99.90
19552;DHT22;9921;47.186;9.778;2022-11-15T08:02:10;4.50;99.90
19552;DHT22;9921;47.186;9.778;2022-11-15T08:04:37;4.70;99.90
19552;DHT22;9921;47.186;9.778;2022-11-15T08:07:04;4.90;99.90
19552;DHT22;9921;47.186;9.778;2022-11-15T08:09:30;5.10;99.90
19552;DHT22;9921;47.186;9.778;2022-11-15T08:11:57;5.20;99.90
19552;DHT22;9921;47.186;9.778;2022-11-15T08:14:24;5.30;99.90
19552;DHT22;9921;47.186;9.778;2022-11-15T08:16:51;5.40;99.90
19552;DHT22;9921;47.186;9.778;2022-11-15T08:19:19;5.60;99.90
19552;DHT22;9921;47.186;9.778;2022-11-15T08:21:46;5.70;99.90
19552;DHT22;9921;47.186;9.778;2022-11-15T08:24:13;5.80;99.90
19552;DHT22;9921;47.186;9.778;2022-11-15T08:26:41;5.90;99.90
19552;DHT22;9921;47.186;9.778;2022-11-15T08:29:07;6.00;99.90
19552;DHT22;9921;47.186;9.778;2022-11-15T08:31:35;6.20;99.90
19552;DHT22;9921;47.186;9.778;2022-11-15T08:34:02;6.30;99.90
19552;DHT22;9921;47.186;9.778;2022-11-15T08:36:31;6.50;99.90
19552;DHT22;9921;47.186;9.778;2022-11-15T08:38:58;6.40;99.90
19552;DHT22;9921;47.186;9.778;2022-11-15T08:41:28;6.40;99.90
19552;DHT22;9921;47.186;9.778;2022-11-15T08:43:56;6.50;99.90
19552;DHT22;9921;47.186;9.778;2022-11-15T08:46:23;6.70;99.90
19552;DHT22;9921;47.186;9.778;2022-11-15T08:48:50;6.90;99.90
19552;DHT22;9921;47.186;9.778;2022-11-15T08:51:17;7.10;99.90
19552;DHT22;9921;47.186;9.778;2022-11-15T08:53:45;7.30;99.90
19552;DHT22;9921;47.186;9.778;2022-11-15T08:56:14;7.40;99.90
19552;DHT22;9921;47.186;9.778;2022-11-15T08:58:41;7.60;99.90
19552;DHT22;9921;47.186;9.778;2022-11-15T09:01:15;7.80;99.90
19552;DHT22;9921;47.186;9.778;2022-11-15T09:03:42;8.00;99.90
19552;DHT22;9921;47.186;9.778;2022-11-15T09:06:08;8.10;99.90
19552;DHT22;9921;47.186;9.778;2022-11-15T09:08:35;8.30;99.90
19552;DHT22;9921;47.186;9.778;2022-11-15T09:11:04;8.40;99.90
19552;DHT22;9921;47.186;9.778;2022-11-15T09:13:31;8.50;99.90
19552;DHT22;9921;47.186;9.778;2022-11-15T09:16:00;8.80;99.90
19552;DHT22;9921;47.186;9.778;2022-11-15T09:18:27;9.00;99.90
19552;DHT22;9921;47.186;9.778;2022-11-15T09:20:55;9.20;99.90
19552;DHT22;9921;47.186;9.778;2022-11-15T09:23:23;9.40;99.90
19552;DHT22;9921;47.186;9.778;2022-11-15T09:25:50;9.50;99.90
19552;DHT22;9921;47.186;9.778;2022-11-15T09:28:19;9.60;99.90
19552;DHT22;9921;47.186;9.778;2022-11-15T09:30:45;9.90;99.90
19552;DHT22;9921;47.186;9.778;2022-11-15T09:33:12;10.20;99.90
19552;DHT22;9921;47.186;9.778;2022-11-15T09:35:39;10.40;99.90
19552;DHT22;9921;47.186;9.778;2022-11-15T09:38:07;10.70;99.90
19552;DHT22;9921;47.186;9.778;2022-11-15T09:40:37;10.90;99.90
19552;DHT22;9921;47.186;9.778;2022-11-15T09:43:23;11.20;99.90
19552;DHT22;9921;47.186;9.778;2022-11-15T09:45:58;11.50;99.90
19552;DHT22;9921;47.186;9.778;2022-11-15T09:48:47;11.60;99.90
19552;DHT22;9921;47.186;9.778;2022-11-15T09:51:23;11.80;99.90
19552;DHT22;9921;47.186;9.778;2022-11-15T09:53:57;11.70;99.90
19552;DHT22;9921;47.186;9.778;2022-11-15T09:56:27;11.50;99.90
19552;DHT22;9921;47.186;9.778;2022-11-15T10:02:03;11.40;99.90
19552;DHT22;9921;47.186;9.778;2022-11-15T10:04:36;11.60;99.90
19552;DHT22;9921;47.186;9.778;2022-11-15T10:07:13;11.70;99.90
19552;DHT22;9921;47.186;9.778;2022-11-15T10:09:45;12.00;99.90
19552;DHT22;9921;47.186;9.778;2022-11-15T10:12:13;12.30;99.90
19552;DHT22;9921;47.186;9.778;2022-11-15T10:14:42;12.50;99.90
19552;DHT22;9921;47.186;9.778;2022-11-15T10:17:28;12.80;99.90
19552;DHT22;9921;47.186;9.778;2022-11-15T10:20:06;13.10;99.90
19552;DHT22;9921;47.186;9.778;2022-11-15T10:22:40;13.40;99.90
19552;DHT22;9921;47.186;9.778;2022-11-15T10:25:16;13.70;99.90
19552;DHT22;9921;47.186;9.778;2022-11-15T10:27:45;13.60;99.90
19552;DHT22;9921;47.186;9.778;2022-11-15T10:30:16;13.50;99.90
19552;DHT22;9921;47.186;9.778;2022-11-15T10:32:45;13.50;99.90
19552;DHT22;9921;47.186;9.778;2022-11-15T10:35:22;13.80;99.90
19552;DHT22;9921;47.186;9.778;2022-11-15T10:37:49;13.90;99.90
19552;DHT22;9921;47.186;9.778;2022-11-15T10:40:19;14.00;99.90
19552;DHT22;9921;47.186;9.778;2022-11-15T10:42:46;14.10;99.90
19552;DHT22;9921;47.186;9.778;2022-11-15T10:45:27;14.10;99.90
19552;DHT22;9921;47.186;9.778;2022-11-15T10:48:22;14.10;99.90
19552;DHT22;9921;47.186;9.778;2022-11-15T10:50:50;14.50;99.90
19552;DHT22;9921;47.186;9.778;2022-11-15T10:53:23;14.70;99.90
19552;DHT22;9921;47.186;9.778;2022-11-15T10:55:52;14.70;99.90
19552;DHT22;9921;47.186;9.778;2022-11-15T10:58:23;15.00;99.90
19552;DHT22;9921;47.186;9.778;2022-11-15T11:00:55;15.30;99.90
19552;DHT22;9921;47.186;9.778;2022-11-15T11:03:29;15.50;99.90
19552;DHT22;9921;47.186;9.778;2022-11-15T11:06:04;15.70;99.90
19552;DHT22;9921;47.186;9.778;2022-11-15T11:08:32;15.70;99.90
19552;DHT22;9921;47.186;9.778;2022-11-15T11:11:00;15.70;99.90
19552;DHT22;9921;47.186;9.778;2022-11-15T11:13:29;15.70;99.90
19552;DHT22;9921;47.186;9.778;2022-11-15T11:16:06;15.80;99.90
19552;DHT22;9921;47.186;9.778;2022-11-15T11:18:41;15.90;99.90
19552;DHT22;9921;47.186;9.778;2022-11-15T11:21:13;16.10;99.90
19552;DHT22;9921;47.186;9.778;2022-11-15T11:23:47;16.20;99.90
19552;DHT22;9921;47.186;9.778;2022-11-15T11:26:30;16.30;99.90
19552;DHT22;9921;47.186;9.778;2022-11-15T11:29:04;16.40;99.90
19552;DHT22;9921;47.186;9.778;2022-11-15T11:31:40;16.30;99.90
19552;DHT22;9921;47.186;9.778;2022-11-15T11:34:15;16.00;99.90
19552;DHT22;9921;47.186;9.778;2022-11-15T11:36:48;15.90;99.90
19552;DHT22;9921;47.186;9.778;2022-11-15T11:39:25;15.70;99.90
19552;DHT22;9921;47.186;9.778;2022-11-15T11:42:01;15.80;99.90
19552;DHT22;9921;47.186;9.778;2022-11-15T11:44:34;15.90;99.90
19552;DHT22;9921;47.186;9.778;2022-11-15T11:47:09;15.90;99.90
19552;DHT22;9921;47.186;9.778;2022-11-15T11:49:41;15.40;99.90
19552;DHT22;9921;47.186;9.778;2022-11-15T11:52:14;15.10;99.90
19552;DHT22;9921;47.186;9.778;2022-11-15T11:54:58;15.00;99.90
19552;DHT22;9921;47.186;9.778;2022-11-15T11:57:33;15.10;99.90
19552;DHT22;9921;47.186;9.778;2022-11-15T12:00:04;15.30;99.90
19552;DHT22;9921;47.186;9.778;2022-11-15T12:02:36;15.50;99.90
19552;DHT22;9921;47.186;9.778;2022-11-15T12:05:14;15.40;99.90
19552;DHT22;9921;47.186;9.778;2022-11-15T12:07:44;15.50;99.90
19552;DHT22;9921;47.186;9.778;2022-11-15T12:10:19;15.50;99.90
19552;DHT22;9921;47.186;9.778;2022-11-15T12:12:54;15.40;99.90
19552;DHT22;9921;47.186;9.778;2022-11-15T12:15:24;15.30;99.90
19552;DHT22;9921;47.186;9.778;2022-11-15T12:17:55;15.20;99.90
19552;DHT22;9921;47.186;9.778;2022-11-15T12:20:23;15.10;99.90
19552;DHT22;9921;47.186;9.778;2022-11-15T12:22:54;15.10;99.90
19552;DHT22;9921;47.186;9.778;2022-11-15T12:25:27;15.10;99.90
19552;DHT22;9921;47.186;9.778;2022-11-15T12:27:59;15.10;99.90
19552;DHT22;9921;47.186;9.778;2022-11-15T12:30:43;15.00;99.90
19552;DHT22;9921;47.186;9.778;2022-11-15T12:33:36;14.90;99.90
19552;DHT22;9921;47.186;9.778;2022-11-15T12:36:05;14.90;99.90
19552;DHT22;9921;47.186;9.778;2022-11-15T12:38:54;14.90;99.90
19552;DHT22;9921;47.186;9.778;2022-11-15T12:41:23;14.70;99.90
19552;DHT22;9921;47.186;9.778;2022-11-15T12:43:50;14.60;99.90
19552;DHT22;9921;47.186;9.778;2022-11-15T12:46:26;14.50;99.90
19552;DHT22;9921;47.186;9.778;2022-11-15T12:52:13;14.40;99.90
19552;DHT22;9921;47.186;9.778;2022-11-15T12:54:52;14.40;99.90
19552;DHT22;9921;47.186;9.778;2022-11-15T12:57:43;14.40;99.90
19552;DHT22;9921;47.186;9.778;2022-11-15T13:03:28;14.40;99.90
19552;DHT22;9921;47.186;9.778;2022-11-15T13:06:05;14.40;99.90
19552;DHT22;9921;47.186;9.778;2022-11-15T13:08:38;14.50;99.90
19552;DHT22;9921;47.186;9.778;2022-11-15T13:11:42;14.50;99.90
19552;DHT22;9921;47.186;9.778;2022-11-15T13:17:29;14.50;99.90
19552;DHT22;9921;47.186;9.778;2022-11-15T13:20:20;14.40;99.90
19552;DHT22;9921;47.186;9.778;2022-11-15T13:22:50;14.20;99.90
19552;DHT22;9921;47.186;9.778;2022-11-15T13:25:24;13.90;99.90
19552;DHT22;9921;47.186;9.778;2022-11-15T13:27:54;13.70;99.90
19552;DHT22;9921;47.186;9.778;2022-11-15T13:30:24;13.50;99.90
19552;DHT22;9921;47.186;9.778;2022-11-15T13:32:51;13.50;99.90
19552;DHT22;9921;47.186;9.778;2022-11-15T13:35:23;13.30;99.90
19552;DHT22;9921;47.186;9.778;2022-11-15T13:37:53;13.20;99.90
19552;DHT22;9921;47.186;9.778;2022-11-15T13:40:24;13.10;99.90
19552;DHT22;9921;47.186;9.778;2022-11-15T13:42:53;13.00;99.90
19552;DHT22;9921;47.186;9.778;2022-11-15T13:45:20;13.00;99.90
19552;DHT22;9921;47.186;9.778;2022-11-15T13:47:53;12.90;99.90
19552;DHT22;9921;47.186;9.778;2022-11-15T13:50:22;12.80;99.90
19552;DHT22;9921;47.186;9.778;2022-11-15T13:52:50;12.80;99.90
19552;DHT22;9921;47.186;9.778;2022-11-15T13:55:21;12.70;99.90
19552;DHT22;9921;47.186;9.778;2022-11-15T13:57:51;12.60;99.90
19552;DHT22;9921;47.186;9.778;2022-11-15T14:00:37;12.50;99.90
19552;DHT22;9921;47.186;9.778;2022-11-15T14:03:12;12.40;99.90
19552;DHT22;9921;47.186;9.778;2022-11-15T14:05:42;12.30;99.90
19552;DHT22;9921;47.186;9.778;2022-11-15T14:08:22;12.40;99.90
19552;DHT22;9921;47.186;9.778;2022-11-15T14:11:06;12.30;99.90
19552;DHT22;9921;47.186;9.778;2022-11-15T14:13:33;12.20;99.90
19552;DHT22;9921;47.186;9.778;2022-11-15T14:16:13;12.20;99.90
19552;DHT22;9921;47.186;9.778;2022-11-15T14:18:45;12.10;99.90
19552;DHT22;9921;47.186;9.778;2022-11-15T14:21:12;12.10;99.90
19552;DHT22;9921;47.186;9.778;2022-11-15T14:23:39;12.00;99.90
19552;DHT22;9921;47.186;9.778;2022-11-15T14:26:26;12.00;99.90
19552;DHT22;9921;47.186;9.778;2022-11-15T14:28:53;11.90;99.90
19552;DHT22;9921;47.186;9.778;2022-11-15T14:31:21;11.80;99.90
19552;DHT22;9921;47.186;9.778;2022-11-15T14:33:48;11.80;99.90
19552;DHT22;9921;47.186;9.778;2022-11-15T14:36:17;11.80;99.90
19552;DHT22;9921;47.186;9.778;2022-11-15T14:38:44;11.80;99.90
19552;DHT22;9921;47.186;9.778;2022-11-15T14:41:19;11.70;99.90
19552;DHT22;9921;47.186;9.778;2022-11-15T14:43:46;11.70;99.90
19552;DHT22;9921;47.186;9.778;2022-11-15T14:46:13;11.80;99.90
19552;DHT22;9921;47.186;9.778;2022-11-15T14:48:40;11.80;99.90
19552;DHT22;9921;47.186;9.778;2022-11-15T14:51:14;11.80;99.90
19552;DHT22;9921;47.186;9.778;2022-11-15T14:53:42;11.80;99.90
19552;DHT22;9921;47.186;9.778;2022-11-15T14:56:10;11.80;99.90
19552;DHT22;9921;47.186;9.778;2022-11-15T14:58:38;11.80;99.90
19552;DHT22;9921;47.186;9.778;2022-11-15T15:01:12;11.80;99.90
19552;DHT22;9921;47.186;9.778;2022-11-15T15:03:39;11.70;99.90
19552;DHT22;9921;47.186;9.778;2022-11-15T15:06:06;11.60;99.90
19552;DHT22;9921;47.186;9.778;2022-11-15T15:08:34;11.60;99.90
19552;DHT22;9921;47.186;9.778;2022-11-15T15:11:01;11.50;99.90
19552;DHT22;9921;47.186;9.778;2022-11-15T15:13:28;11.50;99.90
19552;DHT22;9921;47.186;9.778;2022-11-15T15:15:57;11.50;99.90
19552;DHT22;9921;47.186;9.778;2022-11-15T15:18:24;11.40;99.90
19552;DHT22;9921;47.186;9.778;2022-11-15T15:20:55;11.40;99.90
19552;DHT22;9921;47.186;9.778;2022-11-15T15:23:22;11.40;99.90
19552;DHT22;9921;47.186;9.778;2022-11-15T15:25:51;11.40;99.90
19552;DHT22;9921;47.186;9.778;2022-11-15T15:28:18;11.40;99.90
19552;DHT22;9921;47.186;9.778;2022-11-15T15:30:45;11.40;99.90
19552;DHT22;9921;47.186;9.778;2022-11-15T15:33:13;11.40;99.90
19552;DHT22;9921;47.186;9.778;2022-11-15T15:35:40;11.40;99.90
19552;DHT22;9921;47.186;9.778;2022-11-15T15:38:09;11.40;99.90
19552;DHT22;9921;47.186;9.778;2022-11-15T15:40:37;11.40;99.90
19552;DHT22;9921;47.186;9.778;2022-11-15T15:43:04;11.40;99.90
19552;DHT22;9921;47.186;9.778;2022-11-15T15:45:35;11.30;99.90
19552;DHT22;9921;47.186;9.778;2022-11-15T15:48:02;11.30;99.90
19552;DHT22;9921;47.186;9.778;2022-11-15T15:50:33;11.30;99.90
19552;DHT22;9921;47.186;9.778;2022-11-15T15:53:02;11.40;99.90
19552;DHT22;9921;47.186;9.778;2022-11-15T15:55:30;11.40;99.90
19552;DHT22;9921;47.186;9.778;2022-11-15T15:57:57;11.50;99.90
19552;DHT22;9921;47.186;9.778;2022-11-15T16:00:25;11.40;99.90
19552;DHT22;9921;47.186;9.778;2022-11-15T16:02:53;11.40;99.90
19552;DHT22;9921;47.186;9.778;2022-11-15T16:05:20;11.40;99.90
19552;DHT22;9921;47.186;9.778;2022-11-15T16:07:49;11.40;99.90
19552;DHT22;9921;47.186;9.778;2022-11-15T16:10:22;11.20;99.90
19552;DHT22;9921;47.186;9.778;2022-11-15T16:12:50;11.20;99.90
19552;DHT22;9921;47.186;9.778;2022-11-15T16:15:17;11.10;99.90
19552;DHT22;9921;47.186;9.778;2022-11-15T16:17:47;11.10;99.90
19552;DHT22;9921;47.186;9.778;2022-11-15T16:20:33;11.10;99.90
19552;DHT22;9921;47.186;9.778;2022-11-15T16:23:03;11.10;99.90
19552;DHT22;9921;47.186;9.778;2022-11-15T16:25:32;11.10;99.90
19552;DHT22;9921;47.186;9.778;2022-11-15T16:28:00;11.00;99.90